Time;durP1;ratioP1;P1;durP2;ratioP2;P2;SDS_P1;SDS_P2;PMS_P1;PMS_P2;Temp;Humidity;BMP_temperature;BMP_pressure;BME280_temperature;BME280_humidity;BME280_pressure;Samples;Min_cycle;Max_cycle;Signal;HPM_P1;HPM_P2
2022/10/13 00:00:31;;;;;;;6.83;3.77;;;7.70;99.90;;;;;;4809187;29;20338;-87
2022/10/13 00:03:01;;;;;;;6.93;4.00;;;7.70;99.90;;;;;;4824714;29;20280;-86
2022/10/13 00:05:28;;;;;;;7.07;3.43;;;7.70;99.90;;;;;;4808825;29;20273;-86
2022/10/13 00:07:55;;;;;;;5.43;3.77;;;7.70;99.90;;;;;;4808630;29;20311;-86
2022/10/13 00:10:20;;;;;;;6.60;3.67;;;7.60;99.90;;;;;;4808874;29;20186;-86
2022/10/13 00:12:46;;;;;;;8.37;3.57;;;7.70;99.90;;;;;;4808585;29;20201;-86
2022/10/13 00:15:12;;;;;;;10.77;3.67;;;7.70;99.90;;;;;;4809040;29;20621;-86
2022/10/13 00:17:38;;;;;;;6.10;3.37;;;7.60;99.90;;;;;;4809127;29;20621;-86
2022/10/13 00:20:05;;;;;;;5.50;3.40;;;7.60;99.90;;;;;;4824991;29;20180;-86
2022/10/13 00:22:31;;;;;;;8.97;3.30;;;7.60;99.90;;;;;;4808769;29;20298;-86
2022/10/13 00:24:57;;;;;;;9.00;3.63;;;7.50;99.90;;;;;;4824923;29;20189;-85
2022/10/13 00:27:23;;;;;;;5.47;3.10;;;7.50;99.90;;;;;;4808789;29;20649;-86
2022/10/13 00:29:49;;;;;;;5.73;3.30;;;7.40;99.90;;;;;;4808792;29;20190;-85
2022/10/13 00:32:14;;;;;;;5.33;3.33;;;7.40;99.90;;;;;;4825084;29;20200;-86
2022/10/13 00:34:40;;;;;;;7.10;3.83;;;7.40;99.90;;;;;;4808539;29;20189;-86
2022/10/13 00:37:06;;;;;;;9.80;3.73;;;7.40;99.90;;;;;;4808007;29;20249;-87
2022/10/13 00:39:32;;;;;;;7.60;3.67;;;7.50;99.90;;;;;;4824819;29;20174;-86
2022/10/13 00:41:59;;;;;;;5.87;3.47;;;7.50;99.90;;;;;;4808058;29;20234;-86
2022/10/13 00:44:52;;;;;;;7.80;3.73;;;7.50;99.90;;;;;;4808549;29;20189;-85
2022/10/13 00:47:19;;;;;;;8.07;3.93;;;7.60;99.90;;;;;;4824593;29;20193;-86
2022/10/13 00:49:45;;;;;;;10.70;3.80;;;7.60;99.90;;;;;;4808269;29;20269;-86
2022/10/13 00:52:13;;;;;;;6.23;3.47;;;7.60;99.90;;;;;;4824416;29;20193;-86
2022/10/13 00:54:39;;;;;;;8.87;3.70;;;7.60;99.90;;;;;;4828208;29;20178;-87
2022/10/13 00:57:07;;;;;;;5.90;3.77;;;7.60;99.90;;;;;;4828240;29;20178;-87
2022/10/13 00:59:33;;;;;;;4.70;3.60;;;7.60;99.90;;;;;;4828292;29;20180;-87
2022/10/13 01:02:01;;;;;;;8.10;4.00;;;7.60;99.90;;;;;;4812083;29;20776;-86
2022/10/13 01:04:42;;;;;;;4.87;3.27;;;7.60;99.90;;;;;;4810957;29;20248;-85
2022/10/13 01:07:09;;;;;;;8.33;3.93;;;7.60;99.90;;;;;;4811417;29;20201;-87
2022/10/13 01:09:38;;;;;;;5.93;3.53;;;7.50;99.90;;;;;;4828147;29;20629;-86
2022/10/13 01:12:24;;;;;;;6.40;3.63;;;7.50;99.90;;;;;;4827667;29;20230;-86
2022/10/13 01:15:09;;;;;;;5.60;3.20;;;7.50;99.90;;;;;;4811543;29;20174;-86
2022/10/13 01:18:01;;;;;;;8.20;3.20;;;7.40;99.90;;;;;;4811503;29;20194;-86
2022/10/13 01:20:58;;;;;;;7.60;4.17;;;7.40;99.90;;;;;;4827455;29;20670;-86
2022/10/13 01:23:51;;;;;;;5.47;3.40;;;7.20;99.90;;;;;;4811548;29;20213;-86
2022/10/13 01:27:04;;;;;;;5.57;3.50;;;7.30;99.90;;;;;;4811503;29;20181;-86
2022/10/13 01:30:08;;;;;;;7.50;3.93;;;7.30;99.90;;;;;;4811349;29;20230;-86
2022/10/13 01:33:05;;;;;;;6.87;3.37;;;7.30;99.90;;;;;;4807595;29;20233;-86
2022/10/13 01:35:51;;;;;;;6.87;3.83;;;7.40;99.90;;;;;;4810766;29;20529;-86
2022/10/13 01:38:31;;;;;;;4.57;3.67;;;7.30;99.90;;;;;;4825870;29;20201;-86
2022/10/13 01:41:06;;;;;;;6.57;3.70;;;7.30;99.90;;;;;;4827262;29;20542;-86
2022/10/13 01:43:41;;;;;;;7.73;4.03;;;7.30;99.90;;;;;;4810790;29;20200;-86
2022/10/13 01:46:15;;;;;;;6.53;3.17;;;7.40;99.90;;;;;;4811173;29;20253;-86
2022/10/13 01:48:44;;;;;;;5.67;3.77;;;7.40;99.90;;;;;;4810664;29;20383;-86
2022/10/13 01:51:15;;;;;;;7.60;3.87;;;7.40;99.90;;;;;;4827399;29;20182;-86
2022/10/13 01:53:42;;;;;;;4.70;3.67;;;7.40;99.90;;;;;;4811195;29;20182;-86
2022/10/13 01:56:09;;;;;;;10.63;3.70;;;7.50;99.90;;;;;;4811079;29;20214;-86
2022/10/13 01:58:36;;;;;;;7.53;3.60;;;7.50;99.90;;;;;;4827719;29;20613;-87
2022/10/13 02:01:10;;;;;;;10.83;4.13;;;7.40;99.90;;;;;;4826731;29;20210;-85
2022/10/13 02:03:42;;;;;;;6.60;3.70;;;7.40;99.90;;;;;;4810155;29;20256;-86
2022/10/13 02:06:16;;;;;;;5.83;3.57;;;7.40;99.90;;;;;;4825240;29;20281;-87
2022/10/13 02:08:50;;;;;;;10.87;4.00;;;7.40;99.90;;;;;;4810606;29;20189;-86
2022/10/13 02:11:20;;;;;;;6.13;3.90;;;7.40;99.90;;;;;;4810618;29;20197;-85
2022/10/13 02:14:11;;;;;;;5.20;3.87;;;7.40;99.90;;;;;;4807597;29;20198;-87
2022/10/13 02:16:40;;;;;;;9.73;4.20;;;7.30;99.90;;;;;;4810482;29;20197;-86
2022/10/13 02:19:10;;;;;;;11.23;4.13;;;7.40;99.90;;;;;;4810033;29;20569;-86
2022/10/13 02:21:36;;;;;;;9.73;4.20;;;7.40;99.90;;;;;;4810416;29;20610;-86
2022/10/13 02:24:03;;;;;;;9.13;3.93;;;7.40;99.90;;;;;;4810360;29;20276;-86
2022/10/13 02:26:32;;;;;;;8.00;4.30;;;7.40;99.90;;;;;;4826771;29;20178;-86
2022/10/13 02:28:59;;;;;;;6.07;3.80;;;7.40;99.90;;;;;;4810675;29;20178;-85
2022/10/13 02:31:24;;;;;;;6.53;4.10;;;7.50;99.90;;;;;;4826177;29;20192;-86
2022/10/13 02:33:50;;;;;;;10.40;4.30;;;7.40;99.90;;;;;;4809650;29;20526;-86
2022/10/13 02:36:16;;;;;;;10.67;4.53;;;7.50;99.90;;;;;;4810060;29;20243;-86
2022/10/13 02:38:42;;;;;;;10.80;4.10;;;7.50;99.90;;;;;;4810447;29;20182;-88
2022/10/13 02:41:07;;;;;;;8.10;4.00;;;7.60;99.90;;;;;;4810511;29;20277;-86
2022/10/13 02:43:36;;;;;;;10.70;4.77;;;7.60;99.90;;;;;;4809981;29;20583;-86
2022/10/13 02:46:03;;;;;;;9.77;4.37;;;7.60;99.90;;;;;;4810046;29;20200;-86
2022/10/13 02:48:28;;;;;;;7.27;4.47;;;7.60;99.90;;;;;;4826519;29;20172;-86
2022/10/13 02:50:54;;;;;;;11.83;4.53;;;7.70;99.90;;;;;;4826268;29;20627;-86
2022/10/13 02:53:20;;;;;;;9.33;4.43;;;7.70;99.90;;;;;;4810071;29;20578;-85
2022/10/13 02:55:47;;;;;;;7.73;4.30;;;7.70;99.90;;;;;;4810105;29;20204;-87
2022/10/13 02:58:14;;;;;;;6.53;4.43;;;7.70;99.90;;;;;;4826530;29;20277;-86
2022/10/13 03:00:39;;;;;;;11.10;4.83;;;7.70;99.90;;;;;;4826526;29;20486;-87
2022/10/13 03:03:05;;;;;;;5.77;4.07;;;7.70;99.90;;;;;;4806634;29;20250;-86
2022/10/13 03:05:31;;;;;;;11.63;4.50;;;7.80;99.90;;;;;;4806804;29;20235;-86
2022/10/13 03:07:57;;;;;;;7.90;4.63;;;7.80;99.90;;;;;;4806280;29;20301;-86
2022/10/13 03:10:23;;;;;;;11.67;4.83;;;7.80;99.90;;;;;;4807037;29;20646;-86
2022/10/13 03:12:48;;;;;;;10.53;4.40;;;7.80;99.90;;;;;;4806487;29;20202;-86
2022/10/13 03:15:14;;;;;;;6.25;3.92;;;7.90;99.90;;;;;;4806108;29;20191;-86
2022/10/13 03:17:42;;;;;;;7.97;4.60;;;7.90;99.90;;;;;;4806364;29;20738;-85
2022/10/13 03:20:08;;;;;;;10.77;4.40;;;7.90;99.90;;;;;;4806299;29;20182;-86
2022/10/13 03:22:34;;;;;;;7.95;4.47;;;8.00;99.90;;;;;;4806606;29;20227;-86
2022/10/13 03:25:00;;;;;;;8.20;4.80;;;8.00;99.90;;;;;;4806445;29;20191;-86
2022/10/13 03:27:26;;;;;;;9.83;4.83;;;8.00;99.90;;;;;;4806360;29;20191;-87
2022/10/13 03:29:52;;;;;;;11.53;5.30;;;8.10;99.90;;;;;;4808129;29;20185;-87
2022/10/13 03:32:18;;;;;;;8.53;4.90;;;8.10;99.90;;;;;;4806304;29;20289;-86
2022/10/13 03:34:43;;;;;;;6.47;4.57;;;8.10;99.90;;;;;;4806469;29;20190;-88
2022/10/13 03:37:10;;;;;;;8.80;4.90;;;8.20;99.90;;;;;;4807680;29;20197;-87
2022/10/13 03:39:36;;;;;;;10.77;5.18;;;8.20;99.90;;;;;;4806856;29;20195;-87
2022/10/13 03:42:02;;;;;;;13.90;5.73;;;8.20;99.90;;;;;;4807546;29;20245;-87
2022/10/13 03:44:28;;;;;;;9.67;4.90;;;8.30;99.90;;;;;;4806372;29;20221;-87
2022/10/13 03:46:55;;;;;;;9.10;5.10;;;8.30;99.90;;;;;;4805786;29;20197;-86
2022/10/13 03:49:21;;;;;;;10.20;5.07;;;8.20;99.90;;;;;;4805577;29;20201;-87
2022/10/13 03:51:47;;;;;;;7.90;4.90;;;8.20;99.90;;;;;;4807610;29;20174;-87
2022/10/13 03:54:13;;;;;;;9.80;5.50;;;8.20;99.90;;;;;;4806502;29;20661;-87
2022/10/13 03:56:41;;;;;;;9.03;5.43;;;8.20;99.90;;;;;;4806320;29;20194;-87
2022/10/13 03:59:10;;;;;;;9.17;5.10;;;8.20;99.90;;;;;;4806352;29;20710;-87
2022/10/13 04:01:36;;;;;;;7.57;5.00;;;8.20;99.90;;;;;;4807128;29;20226;-88
2022/10/13 04:04:02;;;;;;;10.33;5.47;;;8.20;99.90;;;;;;4817535;29;20290;-88
2022/10/13 04:06:28;;;;;;;10.38;5.68;;;8.20;99.90;;;;;;4808756;29;20190;-87
2022/10/13 04:08:54;;;;;;;12.25;6.10;;;8.30;99.90;;;;;;4809135;29;20182;-89
2022/10/13 04:11:21;;;;;;;8.37;5.33;;;8.30;99.90;;;;;;4809352;29;20602;-87
2022/10/13 04:13:47;;;;;;;10.43;6.03;;;8.30;99.90;;;;;;4808551;29;20284;-87
2022/10/13 04:16:19;;;;;;;11.70;6.33;;;8.40;99.90;;;;;;4825057;29;20626;-88
2022/10/13 04:18:52;;;;;;;10.30;5.93;;;8.40;99.90;;;;;;4805576;29;20213;-87
2022/10/13 04:21:18;;;;;;;12.20;5.43;;;8.50;99.90;;;;;;4807437;29;20675;-87
2022/10/13 04:23:43;;;;;;;14.30;5.93;;;8.50;99.90;;;;;;4808754;29;20193;-86
2022/10/13 04:26:20;;;;;;;12.05;6.75;;;8.50;99.90;;;;;;4809480;29;20533;-87
2022/10/13 04:28:49;;;;;;;10.70;6.40;;;8.50;99.90;;;;;;4828855;29;20552;-87
2022/10/13 04:31:15;;;;;;;12.57;6.70;;;8.60;99.90;;;;;;4812438;29;20547;-87
2022/10/13 04:33:41;;;;;;;14.02;6.20;;;8.60;99.90;;;;;;4828675;29;20198;-87
2022/10/13 04:36:09;;;;;;;11.25;5.80;;;8.60;99.90;;;;;;4812094;29;20193;-87
2022/10/13 04:38:35;;;;;;;12.73;6.93;;;8.60;99.90;;;;;;4829072;29;20230;-87
2022/10/13 04:41:05;;;;;;;16.98;6.57;;;8.60;99.90;;;;;;4828526;29;20594;-87
2022/10/13 04:43:32;;;;;;;13.02;6.53;;;8.70;99.90;;;;;;4812078;29;20200;-87
2022/10/13 04:46:06;;;;;;;11.38;6.68;;;8.70;99.90;;;;;;4812434;29;20687;-87
2022/10/13 04:48:32;;;;;;;11.00;7.20;;;8.70;99.90;;;;;;4828506;29;20186;-87
2022/10/13 04:51:03;;;;;;;11.25;6.00;;;8.70;99.90;;;;;;4811793;29;20198;-86
2022/10/13 04:53:30;;;;;;;11.48;6.68;;;8.80;99.90;;;;;;4827452;29;20197;-88
2022/10/13 04:55:59;;;;;;;15.05;7.32;;;8.80;99.90;;;;;;4812444;29;20198;-88
2022/10/13 04:58:25;;;;;;;12.10;6.80;;;8.80;99.90;;;;;;4812480;29;20224;-88
2022/10/13 05:00:51;;;;;;;13.70;7.97;;;8.80;99.90;;;;;;4811856;29;20225;-87
2022/10/13 05:03:16;;;;;;;13.85;8.05;;;8.80;99.90;;;;;;4828323;29;20243;-88
2022/10/13 05:05:42;;;;;;;16.35;7.90;;;8.90;99.90;;;;;;4827830;29;20193;-88
2022/10/13 05:08:09;;;;;;;13.18;8.07;;;9.00;99.90;;;;;;4828420;29;20272;-88
2022/10/13 05:10:35;;;;;;;13.90;7.63;;;9.00;99.90;;;;;;4812029;29;20189;-88
2022/10/13 05:13:01;;;;;;;14.38;8.02;;;8.90;99.90;;;;;;4811498;29;20622;-88
2022/10/13 05:15:26;;;;;;;11.27;7.68;;;9.00;99.90;;;;;;4827845;29;20268;-87
2022/10/13 05:17:53;;;;;;;11.60;7.80;;;8.90;99.90;;;;;;4811735;29;20198;-87
2022/10/13 05:20:19;;;;;;;17.37;7.77;;;9.00;99.90;;;;;;4811724;29;20215;-88
2022/10/13 05:22:45;;;;;;;16.03;7.63;;;9.00;99.90;;;;;;4827440;29;20221;-88
2022/10/13 05:25:10;;;;;;;15.17;8.10;;;9.00;99.90;;;;;;4827894;29;20221;-87
2022/10/13 05:27:37;;;;;;;13.37;7.53;;;9.00;99.90;;;;;;4811306;29;20313;-88
2022/10/13 05:30:03;;;;;;;13.77;7.82;;;9.00;99.90;;;;;;4811989;29;20221;-88
2022/10/13 05:32:29;;;;;;;17.70;8.38;;;9.00;99.90;;;;;;4827994;29;20594;-87
2022/10/13 05:34:54;;;;;;;11.70;7.93;;;9.00;99.90;;;;;;4811294;29;20186;-87
2022/10/13 05:37:21;;;;;;;13.10;8.10;;;9.00;99.90;;;;;;4827431;29;20194;-86
2022/10/13 05:39:48;;;;;;;17.83;8.10;;;9.00;99.90;;;;;;4810974;29;20182;-88
2022/10/13 05:42:14;;;;;;;14.15;9.00;;;8.90;99.90;;;;;;4811097;29;20309;-87
2022/10/13 05:44:39;;;;;;;15.90;8.60;;;9.00;99.90;;;;;;4811346;29;20327;-87
2022/10/13 05:47:05;;;;;;;14.87;8.97;;;9.00;99.90;;;;;;4810762;29;20197;-85
2022/10/13 05:49:32;;;;;;;12.83;8.33;;;9.00;99.90;;;;;;4825789;29;20186;-85
2022/10/13 05:52:02;;;;;;;20.00;9.47;;;9.00;99.90;;;;;;4810880;29;20186;-86
2022/10/13 05:54:39;;;;;;;14.98;8.93;;;9.00;99.90;;;;;;4810361;29;20531;-86
2022/10/13 05:57:39;;;;;;;14.17;8.50;;;9.10;99.90;;;;;;4826953;29;20192;-85
2022/10/13 06:00:12;;;;;;;15.47;8.93;;;9.00;99.90;;;;;;4794047;29;20238;-85
2022/10/13 06:02:57;;;;;;;18.67;8.70;;;9.00;99.90;;;;;;4809955;29;20249;-84
2022/10/13 06:05:26;;;;;;;14.87;9.37;;;9.00;99.90;;;;;;4810399;29;20186;-85
2022/10/13 06:07:54;;;;;;;15.13;9.00;;;9.10;99.90;;;;;;4810521;29;20530;-85
2022/10/13 06:10:19;;;;;;;15.07;9.43;;;9.10;99.90;;;;;;4810614;29;20205;-85
2022/10/13 06:12:45;;;;;;;19.57;9.00;;;9.10;99.90;;;;;;4809778;29;20638;-85
2022/10/13 06:15:11;;;;;;;12.73;8.83;;;9.10;99.90;;;;;;4810408;29;20596;-86
2022/10/13 06:17:37;;;;;;;16.93;9.23;;;9.10;99.90;;;;;;4809932;29;20779;-86
2022/10/13 06:20:05;;;;;;;14.73;9.03;;;9.20;99.90;;;;;;4826322;29;20182;-85
2022/10/13 06:22:34;;;;;;;15.57;9.30;;;9.10;99.90;;;;;;4810212;29;20214;-85
2022/10/13 06:25:03;;;;;;;18.50;9.90;;;9.20;99.90;;;;;;4826146;29;20558;-85
2022/10/13 06:27:29;;;;;;;19.20;9.47;;;9.20;99.90;;;;;;4822457;29;20174;-85
2022/10/13 06:29:57;;;;;;;20.77;9.67;;;9.20;99.90;;;;;;4825771;29;20178;-85
2022/10/13 06:32:23;;;;;;;27.27;9.97;;;9.20;99.90;;;;;;4809248;29;20182;-85
2022/10/13 06:34:48;;;;;;;22.02;10.02;;;9.20;99.90;;;;;;4825890;29;20186;-85
2022/10/13 06:37:14;;;;;;;17.10;9.40;;;9.30;99.90;;;;;;4825526;29;20273;-85
2022/10/13 06:39:40;;;;;;;16.00;10.57;;;9.30;99.90;;;;;;4809901;29;20318;-84
2022/10/13 06:42:07;;;;;;;17.60;9.43;;;9.40;99.90;;;;;;4809536;29;20240;-85
2022/10/13 06:44:33;;;;;;;14.50;10.33;;;9.40;99.90;;;;;;4809573;29;20189;-85
2022/10/13 06:46:59;;;;;;;21.93;10.10;;;9.40;99.90;;;;;;4809624;29;20225;-85
2022/10/13 06:49:25;;;;;;;18.23;9.80;;;9.50;99.90;;;;;;4807693;29;20186;-85
2022/10/13 06:51:51;;;;;;;21.48;10.35;;;9.50;99.90;;;;;;4838136;29;20185;-85
2022/10/13 06:54:17;;;;;;;19.35;10.50;;;9.50;99.90;;;;;;4827816;29;20217;-86
2022/10/13 06:56:43;;;;;;;22.45;10.85;;;9.60;99.90;;;;;;4824690;29;20562;-84
2022/10/13 06:59:09;;;;;;;22.75;10.98;;;9.70;99.90;;;;;;4826043;29;20182;-86
2022/10/13 07:01:35;;;;;;;16.70;10.32;;;9.70;99.90;;;;;;4826163;29;20210;-86
2022/10/13 07:04:04;;;;;;;19.23;10.50;;;9.80;99.90;;;;;;4805728;29;20253;-86
2022/10/13 07:06:29;;;;;;;17.55;10.23;;;9.80;99.90;;;;;;4805618;29;20186;-86
2022/10/13 07:08:55;;;;;;;22.30;11.27;;;9.90;99.90;;;;;;4806706;29;20227;-86
2022/10/13 07:11:21;;;;;;;21.35;10.98;;;10.00;99.90;;;;;;4807361;29;20514;-86
2022/10/13 07:13:47;;;;;;;21.60;11.45;;;10.00;99.90;;;;;;4805830;29;20712;-86
2022/10/13 07:16:12;;;;;;;15.98;11.05;;;10.10;99.90;;;;;;4806930;29;20187;-86
2022/10/13 07:18:39;;;;;;;26.17;12.68;;;10.20;99.90;;;;;;4807280;29;20266;-85
2022/10/13 07:21:05;;;;;;;19.63;11.05;;;10.30;99.90;;;;;;4814681;29;20190;-86
2022/10/13 07:23:31;;;;;;;17.38;10.13;;;10.30;99.90;;;;;;4824015;29;20292;-84
2022/10/13 07:25:57;;;;;;;19.33;11.25;;;10.30;99.90;;;;;;4824340;29;20573;-86
2022/10/13 07:28:26;;;;;;;19.63;11.20;;;10.40;99.90;;;;;;4825721;29;20205;-85
2022/10/13 07:30:52;;;;;;;27.02;11.30;;;10.40;99.90;;;;;;4814491;29;20194;-85
2022/10/13 07:33:19;;;;;;;25.67;12.32;;;10.40;99.90;;;;;;4805886;29;20642;-85
2022/10/13 07:35:45;;;;;;;21.58;11.45;;;10.40;99.90;;;;;;4805374;29;20195;-86
2022/10/13 07:38:10;;;;;;;23.25;11.52;;;10.50;99.90;;;;;;4807349;29;20191;-87
2022/10/13 07:40:42;;;;;;;23.38;11.30;;;10.60;99.90;;;;;;4807381;29;20190;-85
2022/10/13 07:43:08;;;;;;;19.17;11.25;;;10.60;99.90;;;;;;4813952;29;20234;-84
2022/10/13 07:45:34;;;;;;;21.73;11.65;;;10.60;99.90;;;;;;4812833;29;20183;-85
2022/10/13 07:47:59;;;;;;;16.85;10.52;;;10.70;99.90;;;;;;4805909;29;20289;-85
2022/10/13 07:50:25;;;;;;;24.80;11.85;;;10.80;99.90;;;;;;4805250;29;20206;-85
2022/10/13 07:52:51;;;;;;;16.77;10.98;;;10.80;99.90;;;;;;4805601;29;20199;-85
2022/10/13 07:55:16;;;;;;;20.30;11.88;;;10.90;99.90;;;;;;4809948;29;20189;-85
2022/10/13 07:57:42;;;;;;;17.80;11.98;;;10.90;99.90;;;;;;4824028;29;20201;-85
2022/10/13 08:00:09;;;;;;;20.98;11.35;;;10.90;99.90;;;;;;4825092;29;20214;-87
2022/10/13 08:02:35;;;;;;;19.98;12.70;;;11.00;99.90;;;;;;4807899;29;20297;-86
2022/10/13 08:05:02;;;;;;;26.50;13.60;;;11.10;99.90;;;;;;4805342;29;20329;-86
2022/10/13 08:07:27;;;;;;;20.83;11.98;;;11.10;99.90;;;;;;4813310;29;20190;-85
2022/10/13 08:09:53;;;;;;;20.35;12.05;;;11.20;99.90;;;;;;4824029;29;20626;-86
2022/10/13 08:12:19;;;;;;;22.40;12.70;;;11.20;99.90;;;;;;4819491;29;20195;-86
2022/10/13 08:14:48;;;;;;;26.95;12.13;;;11.30;99.90;;;;;;4805446;29;20194;-86
2022/10/13 08:17:14;;;;;;;20.30;12.18;;;11.30;99.90;;;;;;4805638;29;20273;-86
2022/10/13 08:19:40;;;;;;;19.50;11.90;;;11.30;99.90;;;;;;4805011;29;20741;-85
2022/10/13 08:22:05;;;;;;;20.52;11.32;;;11.30;99.90;;;;;;4821741;29;20217;-87
2022/10/13 08:24:31;;;;;;;18.70;11.32;;;11.30;99.90;;;;;;4820834;29;20194;-85
2022/10/13 08:26:57;;;;;;;16.58;10.95;;;11.30;99.90;;;;;;4823697;29;20193;-86
2022/10/13 08:29:23;;;;;;;23.58;11.30;;;11.30;99.90;;;;;;4823906;29;20190;-87
2022/10/13 08:31:49;;;;;;;23.48;11.63;;;11.40;99.90;;;;;;4821783;29;20170;-87
2022/10/13 08:34:14;;;;;;;19.98;10.98;;;11.40;99.90;;;;;;4803522;29;20186;-86
2022/10/13 08:36:41;;;;;;;20.00;11.70;;;11.50;99.90;;;;;;4804895;29;20302;-86
2022/10/13 08:39:07;;;;;;;25.00;11.05;;;11.60;99.90;;;;;;4817827;29;20194;-85
2022/10/13 08:41:37;;;;;;;21.25;11.80;;;11.60;99.90;;;;;;4823694;29;20224;-86
2022/10/13 08:44:13;;;;;;;23.63;11.13;;;11.70;99.90;;;;;;4808792;29;20193;-86
2022/10/13 08:47:01;;;;;;;18.35;11.65;;;11.80;99.90;;;;;;4806486;29;20177;-86
2022/10/13 08:49:29;;;;;;;21.05;11.68;;;11.90;99.90;;;;;;4804936;29;20190;-85
2022/10/13 08:51:55;;;;;;;22.42;12.05;;;12.00;99.90;;;;;;4806714;29;20256;-87
2022/10/13 08:54:24;;;;;;;21.20;11.95;;;12.10;99.90;;;;;;4812811;29;20194;-84
2022/10/13 08:56:51;;;;;;;23.20;11.52;;;12.20;99.90;;;;;;4823795;29;20178;-85
2022/10/13 08:59:18;;;;;;;25.70;11.85;;;12.30;99.90;;;;;;4824553;29;20202;-87
2022/10/13 09:01:50;;;;;;;19.20;12.18;;;12.30;99.90;;;;;;4823108;29;20691;-86
2022/10/13 09:04:30;;;;;;;24.50;11.88;;;12.40;99.90;;;;;;4805125;29;20250;-84
2022/10/13 09:07:10;;;;;;;20.52;11.95;;;12.40;99.90;;;;;;4787236;30;20266;-84
2022/10/13 09:09:37;;;;;;;16.30;10.90;;;12.40;99.90;;;;;;4786512;30;20671;-85
2022/10/13 09:12:04;;;;;;;18.13;11.25;;;12.50;99.90;;;;;;4789899;29;20180;-84
2022/10/13 09:14:36;;;;;;;18.52;10.38;;;12.60;99.90;;;;;;4815209;29;20285;-86
2022/10/13 09:17:25;;;;;;;20.98;10.32;;;12.70;99.90;;;;;;4826466;29;20186;-85
2022/10/13 09:20:05;;;;;;;18.85;10.85;;;12.80;99.90;;;;;;4804737;29;20179;-84
2022/10/13 09:22:37;;;;;;;19.20;11.13;;;12.80;99.90;;;;;;4798583;29;20297;-85
2022/10/13 09:25:05;;;;;;;19.20;12.10;;;12.90;99.90;;;;;;4808284;29;20278;-86
2022/10/13 09:27:50;;;;;;;18.77;10.52;;;12.90;99.90;;;;;;4807824;29;20302;-85
2022/10/13 09:30:37;;;;;;;19.30;10.05;;;13.00;99.90;;;;;;4808172;29;20186;-86
2022/10/13 09:33:10;;;;;;;16.27;10.05;;;13.10;99.90;;;;;;4807525;29;20194;-87
2022/10/13 09:35:47;;;;;;;21.05;9.13;;;13.30;99.90;;;;;;4809043;29;20616;-86
2022/10/13 09:38:21;;;;;;;14.90;9.60;;;13.40;99.90;;;;;;4808196;29;20182;-85
2022/10/13 09:41:06;;;;;;;30.00;10.75;;;13.50;99.90;;;;;;4809192;29;20186;-86
2022/10/13 09:43:40;;;;;;;19.88;8.93;;;13.80;99.90;;;;;;4808214;29;20222;-84
2022/10/13 09:46:24;;;;;;;12.88;8.57;;;13.90;99.90;;;;;;4809180;29;20523;-86
2022/10/13 09:48:53;;;;;;;13.90;8.65;;;13.90;99.90;;;;;;4807711;29;20537;-85
2022/10/13 09:51:37;;;;;;;15.95;8.50;;;14.00;99.90;;;;;;4808971;29;20186;-87
2022/10/13 09:54:05;;;;;;;14.18;8.73;;;14.00;99.90;;;;;;4807729;29;20179;-86
2022/10/13 09:56:48;;;;;;;17.20;9.18;;;14.00;99.90;;;;;;4808099;29;20528;-86
2022/10/13 09:59:34;;;;;;;23.85;9.05;;;14.00;99.90;;;;;;4807362;29;20692;-86
2022/10/13 10:02:39;;;;;;;14.48;8.55;;;14.00;99.90;;;;;;4807315;29;20214;-84
2022/10/13 10:05:17;;;;;;;17.25;8.88;;;14.00;99.90;;;;;;4818098;29;20634;-86
2022/10/13 10:07:44;;;;;;;14.98;8.85;;;13.90;99.90;;;;;;4810247;29;20194;-86
2022/10/13 10:10:32;;;;;;;19.42;7.90;;;14.00;99.90;;;;;;4810402;29;20189;-85
2022/10/13 10:12:59;;;;;;;23.23;8.65;;;13.90;99.90;;;;;;4826617;29;20718;-83
2022/10/13 10:15:50;;;;;;;16.80;8.10;;;13.90;99.90;;;;;;4810290;29;20587;-87
2022/10/13 10:18:30;;;;;;;19.02;8.48;;;13.90;99.90;;;;;;4784556;29;20202;-86
2022/10/13 10:21:03;;;;;;;13.32;8.30;;;13.90;99.90;;;;;;4827664;29;20273;-86
2022/10/13 10:23:49;;;;;;;14.98;8.75;;;14.00;99.90;;;;;;4809968;29;20243;-86
2022/10/13 10:26:24;;;;;;;14.13;8.60;;;14.10;99.90;;;;;;4833585;29;20184;-84
2022/10/13 10:29:20;;;;;;;15.55;8.32;;;14.30;99.90;;;;;;4809336;29;20226;-86
2022/10/13 10:31:55;;;;;;;17.98;8.05;;;14.50;99.90;;;;;;4825745;29;20178;-83
2022/10/13 10:34:30;;;;;;;14.48;7.97;;;14.70;99.90;;;;;;4809389;29;20640;-84
2022/10/13 10:37:28;;;;;;;16.83;7.65;;;14.80;99.90;;;;;;4826171;29;20216;-84
2022/10/13 10:40:22;;;;;;;17.60;7.57;;;14.90;99.90;;;;;;4813910;29;20308;-85
2022/10/13 10:43:12;;;;;;;13.35;7.43;;;15.00;99.90;;;;;;4783520;29;20241;-85
2022/10/13 10:45:39;;;;;;;15.85;6.57;;;15.10;99.90;;;;;;4825636;29;20196;-85
2022/10/13 10:48:21;;;;;;;10.52;7.05;;;15.30;99.90;;;;;;4825727;29;20194;-85
2022/10/13 10:50:50;;;;;;;10.20;5.57;;;15.40;99.90;;;;;;4809576;29;20182;-84
2022/10/13 10:53:36;;;;;;;12.30;6.43;;;15.40;99.90;;;;;;4828065;29;20198;-85
2022/10/13 10:56:20;;;;;;;15.05;5.70;;;15.40;99.90;;;;;;4827586;29;20268;-84
2022/10/13 10:59:21;;;;;;;18.13;6.05;;;15.40;99.90;;;;;;4827683;29;20211;-85
2022/10/13 11:02:05;;;;;;;15.38;5.72;;;15.50;99.90;;;;;;4789883;29;20241;-84
2022/10/13 11:04:38;;;;;;;10.63;5.47;;;15.50;99.90;;;;;;4827860;29;20255;-83
2022/10/13 11:07:08;;;;;;;11.98;5.00;;;15.50;99.90;;;;;;4818634;29;20190;-84
2022/10/13 11:09:40;;;;;;;9.52;5.90;;;15.60;99.90;;;;;;4809428;29;20186;-84
2022/10/13 11:12:18;;;;;;;8.95;5.00;;;15.70;99.90;;;;;;4811225;29;20284;-85
2022/10/13 11:14:53;;;;;;;13.05;5.50;;;15.70;99.90;;;;;;4809087;29;20276;-85
2022/10/13 11:17:19;;;;;;;11.70;5.00;;;15.70;99.90;;;;;;4825595;29;20192;-84
2022/10/13 11:19:47;;;;;;;13.80;5.72;;;15.60;99.90;;;;;;4819330;29;20538;-86
2022/10/13 11:22:18;;;;;;;9.43;5.32;;;15.60;99.90;;;;;;4790895;29;20218;-84
2022/10/13 11:24:47;;;;;;;17.48;5.70;;;15.60;99.90;;;;;;4807264;29;20281;-84
2022/10/13 11:27:15;;;;;;;9.80;5.18;;;15.60;99.90;;;;;;4806008;29;20595;-85
2022/10/13 11:29:56;;;;;;;11.85;4.70;;;15.60;99.90;;;;;;4807261;29;20197;-85
2022/10/13 11:32:54;;;;;;;11.07;4.05;;;15.70;99.90;;;;;;4823994;29;20177;-84
2022/10/13 11:35:10;;;;;;;9.60;3.80;;;15.70;99.90;;;;;;4824679;29;20767;-84
2022/10/13 11:37:54;;;;;;;9.57;4.30;;;15.80;99.90;;;;;;4824853;29;20273;-85
2022/10/13 11:40:34;;;;;;;11.70;4.30;;;16.00;99.90;;;;;;4824082;29;20178;-84
2022/10/13 11:43:16;;;;;;;11.20;4.13;;;16.10;99.90;;;;;;4819101;29;20214;-84
2022/10/13 11:46:14;;;;;;;7.72;4.32;;;16.20;99.90;;;;;;4825221;29;20170;-84
2022/10/13 11:48:49;;;;;;;13.27;5.00;;;16.20;99.90;;;;;;4808316;29;20214;-86
2022/10/13 11:51:39;;;;;;;7.97;4.47;;;16.30;99.90;;;;;;4809887;29;20193;-85
2022/10/13 11:54:15;;;;;;;7.80;3.97;;;16.40;99.90;;;;;;4808715;29;20270;-86
2022/10/13 11:56:53;;;;;;;8.25;4.43;;;16.60;99.90;;;;;;4808783;29;20174;-83
2022/10/13 11:59:25;;;;;;;8.52;3.78;;;16.70;99.90;;;;;;4824249;29;20192;-86
2022/10/13 12:02:10;;;;;;;10.73;4.72;;;16.80;99.90;;;;;;4841470;29;20223;-85
2022/10/13 12:04:36;;;;;;;12.20;4.35;;;16.70;99.90;;;;;;4825374;29;20237;-85
2022/10/13 12:07:05;;;;;;;6.57;4.00;;;16.70;99.90;;;;;;4807961;29;20642;-85
2022/10/13 12:09:32;;;;;;;8.40;3.70;;;16.50;99.90;;;;;;4808585;29;20342;-86
2022/10/13 12:12:11;;;;;;;5.28;3.50;;;16.50;99.90;;;;;;4813249;29;20185;-87
2022/10/13 12:14:46;;;;;;;7.38;4.03;;;16.40;99.90;;;;;;4811022;29;20532;-87
2022/10/13 12:17:29;;;;;;;8.25;3.75;;;16.40;99.90;;;;;;4835384;29;20186;-86
2022/10/13 12:19:57;;;;;;;8.27;3.45;;;16.30;99.90;;;;;;4808151;29;20185;-86
2022/10/13 12:22:23;;;;;;;10.35;3.40;;;16.20;99.90;;;;;;4808395;29;20225;-87
2022/10/13 12:25:00;;;;;;;9.45;4.32;;;16.20;99.90;;;;;;4824452;29;20190;-86
2022/10/13 12:27:28;;;;;;;6.35;3.70;;;16.30;99.90;;;;;;4808497;29;20185;-84
2022/10/13 12:29:54;;;;;;;8.27;4.00;;;16.60;99.90;;;;;;4824693;29;20261;-85
2022/10/13 12:32:26;;;;;;;8.80;4.30;;;16.80;99.90;;;;;;4824201;29;20272;-87
2022/10/13 12:34:51;;;;;;;8.77;4.03;;;17.20;99.90;;;;;;4824361;29;20175;-85
2022/10/13 12:37:32;;;;;;;9.95;4.32;;;17.30;99.90;;;;;;4808014;29;20205;-86
2022/10/13 12:39:59;;;;;;;10.32;4.10;;;17.40;99.90;;;;;;4824788;29;20173;-86
2022/10/13 12:42:34;;;;;;;8.43;3.85;;;17.50;99.90;;;;;;4808303;29;20225;-85
2022/10/13 12:45:01;;;;;;;7.80;3.67;;;17.70;99.90;;;;;;4808381;29;20193;-84
2022/10/13 12:47:42;;;;;;;8.75;3.08;;;17.80;99.90;;;;;;4825657;29;20213;-86
2022/10/13 12:50:29;;;;;;;10.98;3.40;;;17.70;99.90;;;;;;4842336;29;20341;-85
2022/10/13 12:53:07;;;;;;;10.40;4.20;;;17.90;99.90;;;;;;4846277;29;20209;-85
2022/10/13 12:55:34;;;;;;;5.28;3.22;;;18.10;99.90;;;;;;4846443;29;20178;-86
2022/10/13 12:58:00;;;;;;;11.07;3.17;;;17.80;99.90;;;;;;4829678;29;20185;-84
2022/10/13 13:00:28;;;;;;;9.30;3.92;;;17.80;99.90;;;;;;4846267;29;20628;-84
2022/10/13 13:03:05;;;;;;;9.77;3.63;;;17.70;99.90;;;;;;4812964;29;20226;-84